createdAt,value
2023-05-19T00:00:14.917Z,72.61
2023-05-19T00:03:09.476Z,72.25
2023-05-19T00:05:45.823Z,72.12
2023-05-19T00:08:19.996Z,72.35
2023-05-19T00:10:53.118Z,72.25
2023-05-19T00:13:26.475Z,71.96
2023-05-19T00:15:59.470Z,72.41
2023-05-19T00:18:31.580Z,72.56
2023-05-19T00:21:03.772Z,72.66
2023-05-19T00:23:35.939Z,72.73
2023-05-19T00:26:08.004Z,73.03
2023-05-19T00:28:40.310Z,73.18
2023-05-19T00:31:12.376Z,73.09
2023-05-19T00:33:44.476Z,72.70
2023-05-19T00:36:16.718Z,72.47
2023-05-19T00:38:48.854Z,72.22
2023-05-19T00:41:21.124Z,72.71
2023-05-19T00:43:53.708Z,72.58
2023-05-19T00:46:26.020Z,72.54
2023-05-19T00:48:58.353Z,72.38
2023-05-19T00:51:31.507Z,72.45
2023-05-19T00:54:04.016Z,72.74
2023-05-19T00:56:36.390Z,73.26
2023-05-19T00:59:09.169Z,73.75
2023-05-19T01:01:41.918Z,73.07
2023-05-19T01:04:16.972Z,73.07
2023-05-19T01:06:54.981Z,73.07
2023-05-19T01:09:27.181Z,72.92
2023-05-19T01:11:59.900Z,72.76
2023-05-19T01:14:32.861Z,73.11
2023-05-19T01:17:15.305Z,72.81
2023-05-19T01:20:02.325Z,72.87
2023-05-19T01:22:55.087Z,73.23
2023-05-19T01:25:50.845Z,73.27
2023-05-19T01:28:47.743Z,73.37
2023-05-19T01:31:23.948Z,73.75
2023-05-19T01:33:58.181Z,73.32
2023-05-19T01:36:32.907Z,73.12
2023-05-19T01:39:05.927Z,73.34
2023-05-19T01:41:39.503Z,72.86
2023-05-19T01:44:14.762Z,73.06
2023-05-19T01:46:47.037Z,73.50
2023-05-19T01:49:19.050Z,73.37
2023-05-19T01:51:51.941Z,73.63
2023-05-19T01:54:24.030Z,73.76
2023-05-19T01:57:06.566Z,74.04
2023-05-19T01:59:53.736Z,73.97
2023-05-19T02:02:39.137Z,73.96
2023-05-19T02:05:19.956Z,73.86
2023-05-19T02:08:05.900Z,73.85
2023-05-19T02:10:43.671Z,73.69
2023-05-19T02:13:19.028Z,73.95
2023-05-19T02:15:53.401Z,73.73
2023-05-19T02:18:25.709Z,73.77
2023-05-19T02:20:57.795Z,74.28
2023-05-19T02:23:29.999Z,74.31
2023-05-19T02:26:02.741Z,74.39
2023-05-19T02:28:34.845Z,74.54
2023-05-19T02:31:09.134Z,74.68
2023-05-19T02:33:41.536Z,74.30
2023-05-19T02:36:15.022Z,73.94
2023-05-19T02:38:47.057Z,73.89
2023-05-19T02:41:19.269Z,73.91
2023-05-19T02:43:51.301Z,73.88
2023-05-19T02:46:23.414Z,73.96
2023-05-19T02:48:55.731Z,74.27
2023-05-19T02:51:27.821Z,74.40
2023-05-19T02:54:00.075Z,74.12
2023-05-19T02:56:32.341Z,74.13
2023-05-19T02:59:04.410Z,73.96
2023-05-19T03:01:37.882Z,74.02
2023-05-19T03:04:10.642Z,73.90
2023-05-19T03:06:45.441Z,73.76
2023-05-19T03:09:17.512Z,73.78
2023-05-19T03:11:49.621Z,74.45
2023-05-19T03:14:24.818Z,74.80
2023-05-19T03:16:57.319Z,74.71
2023-05-19T03:19:32.612Z,74.52
2023-05-19T03:22:05.117Z,74.44
2023-05-19T03:24:38.450Z,74.48
2023-05-19T03:27:11.168Z,74.76
2023-05-19T03:29:43.502Z,74.69
2023-05-19T03:32:15.726Z,74.42
2023-05-19T03:34:48.004Z,74.75
2023-05-19T03:37:20.393Z,75.34
2023-05-19T03:39:52.559Z,75.24
2023-05-19T03:42:27.362Z,75.90
2023-05-19T03:44:59.624Z,75.41
2023-05-19T03:47:32.866Z,75.60
2023-05-19T03:50:25.312Z,75.66
2023-05-19T03:53:01.833Z,75.70
2023-05-19T03:55:37.480Z,75.50
2023-05-19T03:58:10.874Z,75.99
2023-05-19T04:00:43.869Z,76.38
2023-05-19T04:03:16.169Z,76.44
2023-05-19T04:05:48.726Z,76.22
2023-05-19T04:08:21.045Z,75.98
2023-05-19T04:10:53.274Z,75.65
2023-05-19T04:13:25.877Z,75.50
2023-05-19T04:15:58.163Z,75.48
2023-05-19T04:18:31.714Z,75.39
2023-05-19T04:21:03.894Z,75.27
2023-05-19T04:23:36.050Z,75.64
2023-05-19T04:26:10.366Z,76.08
2023-05-19T04:28:45.000Z,76.06
2023-05-19T04:31:17.645Z,75.93
2023-05-19T04:33:50.308Z,76.03
2023-05-19T04:36:22.651Z,76.08
2023-05-19T04:39:02.958Z,75.83
2023-05-19T04:41:35.596Z,75.76
2023-05-19T04:44:09.194Z,75.49
2023-05-19T04:46:42.907Z,76.04
2023-05-19T04:49:15.654Z,76.37
2023-05-19T04:51:50.843Z,76.70
2023-05-19T04:54:29.506Z,76.61
2023-05-19T04:57:02.202Z,76.68
2023-05-19T04:59:35.115Z,76.23
2023-05-19T05:02:07.966Z,75.75
2023-05-19T05:04:44.261Z,75.83
2023-05-19T05:07:16.553Z,75.84
2023-05-19T05:09:49.385Z,75.95
2023-05-19T05:12:23.188Z,75.95
2023-05-19T05:14:56.686Z,76.42
2023-05-19T05:17:29.890Z,76.40
2023-05-19T05:20:03.404Z,76.43
2023-05-19T05:22:38.778Z,76.40
2023-05-19T05:25:14.779Z,76.22
2023-05-19T05:27:48.063Z,75.90
2023-05-19T05:30:20.398Z,75.55
2023-05-19T05:32:52.824Z,75.53
2023-05-19T05:35:39.463Z,75.52
2023-05-19T05:38:12.676Z,75.64
2023-05-19T05:40:45.068Z,75.30
2023-05-19T05:43:17.449Z,75.74
2023-05-19T05:45:53.806Z,75.68
2023-05-19T05:48:27.388Z,75.23
2023-05-19T05:51:01.174Z,74.97
2023-05-19T05:53:43.156Z,74.61
2023-05-19T05:56:17.459Z,74.82
2023-05-19T05:58:54.486Z,74.55
2023-05-19T06:01:26.863Z,74.43
2023-05-19T06:03:59.382Z,74.35
2023-05-19T06:06:32.921Z,74.47
2023-05-19T06:09:06.816Z,74.46
2023-05-19T06:11:39.121Z,74.66
2023-05-19T06:14:11.679Z,74.41
2023-05-19T06:17:09.691Z,74.04
2023-05-19T06:19:42.130Z,73.69
2023-05-19T06:22:14.627Z,73.41
2023-05-19T06:24:46.846Z,73.47
2023-05-19T06:27:19.237Z,73.32
2023-05-19T06:29:52.252Z,73.35
2023-05-19T06:32:26.603Z,72.99
2023-05-19T06:34:58.964Z,72.85
2023-05-19T06:37:31.232Z,72.95
2023-05-19T06:40:04.363Z,73.38
2023-05-19T06:42:37.269Z,73.49
2023-05-19T06:45:22.507Z,73.80
2023-05-19T06:47:58.364Z,72.97
2023-05-19T06:50:31.187Z,72.87
2023-05-19T06:53:03.788Z,72.32
2023-05-19T06:55:43.870Z,72.04
2023-05-19T06:58:24.605Z,71.74
2023-05-19T07:00:57.377Z,71.26
2023-05-19T07:03:31.436Z,70.58
2023-05-19T07:06:05.743Z,70.73
2023-05-19T07:08:38.405Z,70.70
2023-05-19T07:11:12.523Z,70.54
2023-05-19T07:13:45.413Z,70.28
2023-05-19T07:16:18.105Z,70.24
2023-05-19T07:18:50.370Z,70.22
2023-05-19T07:21:22.630Z,70.44
2023-05-19T07:23:55.481Z,70.75
2023-05-19T07:26:28.213Z,70.82
2023-05-19T07:29:00.559Z,70.26
2023-05-19T07:31:32.886Z,70.24
2023-05-19T07:34:06.538Z,70.07
2023-05-19T07:36:38.712Z,69.55
2023-05-19T07:39:11.183Z,69.38
2023-05-19T07:41:43.661Z,68.38
2023-05-19T07:44:15.825Z,68.99
2023-05-19T07:46:48.095Z,68.91
2023-05-19T07:49:20.585Z,68.88
2023-05-19T07:51:53.015Z,68.80
2023-05-19T07:54:25.125Z,68.42
2023-05-19T07:56:57.551Z,68.37
2023-05-19T07:59:29.847Z,68.71
2023-05-19T08:02:02.232Z,68.67
2023-05-19T08:04:34.802Z,68.68
2023-05-19T08:07:07.132Z,69.17
2023-05-19T08:09:39.578Z,68.34
2023-05-19T08:12:11.853Z,68.78
2023-05-19T08:14:44.021Z,68.08
2023-05-19T08:17:16.460Z,68.07
2023-05-19T08:19:48.715Z,68.13
2023-05-19T08:22:20.915Z,68.29
2023-05-19T08:24:53.007Z,68.16
2023-05-19T08:27:25.367Z,67.92
2023-05-19T08:29:57.551Z,68.13
2023-05-19T08:32:29.717Z,68.43
2023-05-19T08:35:01.941Z,68.45
2023-05-19T08:37:34.258Z,68.47
2023-05-19T08:40:09.077Z,67.92
2023-05-19T08:42:41.410Z,67.74
2023-05-19T08:45:14.348Z,67.88
2023-05-19T08:47:48.812Z,67.43
2023-05-19T08:50:36.748Z,67.82
2023-05-19T08:53:28.969Z,68.21
2023-05-19T08:56:11.428Z,68.42
2023-05-19T08:58:44.349Z,68.67
2023-05-19T09:01:18.191Z,68.53
2023-05-19T09:03:50.948Z,68.11
2023-05-19T09:06:23.382Z,67.67
2023-05-19T09:08:58.019Z,66.99
2023-05-19T09:11:30.747Z,67.44
2023-05-19T09:14:02.850Z,65.79
2023-05-19T09:16:35.793Z,66.08
2023-05-19T09:19:15.637Z,66.23
2023-05-19T09:21:47.747Z,66.22
2023-05-19T09:24:20.360Z,66.27
2023-05-19T09:26:52.410Z,65.91
2023-05-19T09:29:25.154Z,65.98
2023-05-19T09:32:01.160Z,66.08
2023-05-19T09:34:33.838Z,65.44
2023-05-19T09:37:06.111Z,65.45
2023-05-19T09:39:39.963Z,64.69
2023-05-19T09:42:12.124Z,64.54
2023-05-19T09:44:44.329Z,64.55
2023-05-19T09:47:18.072Z,64.76
2023-05-19T09:49:52.284Z,64.45
2023-05-19T09:52:24.556Z,64.49
2023-05-19T09:54:58.093Z,65.11
2023-05-19T09:57:34.610Z,64.66
2023-05-19T10:00:25.998Z,65.04
2023-05-19T10:02:58.928Z,65.08
2023-05-19T10:05:32.700Z,65.07
2023-05-19T10:08:10.534Z,64.17
2023-05-19T10:10:42.751Z,64.35
2023-05-19T10:13:15.710Z,64.08
2023-05-19T10:18:29.589Z,64.87
2023-05-19T10:21:03.716Z,65.05
2023-05-19T10:23:35.941Z,64.48
2023-05-19T10:26:09.780Z,64.35
2023-05-19T10:28:44.650Z,64.74
2023-05-19T10:31:23.498Z,64.34
2023-05-19T10:34:15.631Z,65.11
2023-05-19T10:36:51.779Z,65.29
2023-05-19T10:39:27.964Z,64.47
2023-05-19T10:42:10.981Z,64.42
2023-05-19T10:44:59.916Z,63.11
2023-05-19T10:47:32.703Z,63.81
2023-05-19T10:50:06.847Z,63.92
2023-05-19T10:52:41.966Z,62.93
2023-05-19T10:55:17.765Z,63.05
2023-05-19T10:57:58.166Z,63.63
2023-05-19T11:00:34.890Z,63.58
2023-05-19T11:03:17.906Z,64.10
2023-05-19T11:05:52.515Z,63.72
2023-05-19T11:08:36.542Z,64.06
2023-05-19T11:11:17.809Z,64.03
2023-05-19T11:13:55.183Z,63.55
2023-05-19T11:16:35.867Z,63.69
2023-05-19T11:19:09.529Z,63.55
2023-05-19T11:21:55.036Z,62.64
2023-05-19T11:24:44.795Z,62.06
2023-05-19T11:27:29.193Z,63.00
2023-05-19T11:30:02.488Z,63.64
2023-05-19T11:32:36.061Z,63.28
2023-05-19T11:35:10.460Z,62.36
2023-05-19T11:37:43.811Z,62.40
2023-05-19T11:40:18.646Z,63.15
2023-05-19T11:42:50.915Z,63.08
2023-05-19T11:45:29.106Z,63.05
2023-05-19T11:48:04.436Z,63.12
2023-05-19T11:50:38.451Z,63.00
2023-05-19T11:53:15.007Z,63.36
2023-05-19T11:55:49.207Z,62.23
2023-05-19T11:58:29.119Z,62.93
2023-05-19T12:01:06.834Z,63.49
2023-05-19T12:03:39.144Z,63.65
2023-05-19T12:06:13.659Z,63.03
2023-05-19T12:08:46.431Z,62.91
2023-05-19T12:11:20.120Z,63.62
2023-05-19T12:13:56.571Z,63.23
2023-05-19T12:16:35.784Z,63.30
2023-05-19T12:19:09.711Z,63.18
2023-05-19T12:21:42.392Z,63.21
2023-05-19T12:24:14.811Z,63.40
2023-05-19T12:26:47.382Z,62.88
2023-05-19T12:29:19.482Z,62.20
2023-05-19T12:31:51.629Z,62.54
2023-05-19T12:34:24.389Z,62.73
2023-05-19T12:36:56.806Z,62.82
2023-05-19T12:39:29.604Z,62.69
2023-05-19T12:42:09.002Z,62.91
2023-05-19T12:44:44.082Z,62.67
2023-05-19T12:47:17.120Z,62.95
2023-05-19T12:50:02.681Z,62.53
2023-05-19T12:52:36.226Z,61.96
2023-05-19T12:55:11.884Z,62.09
2023-05-19T12:57:46.027Z,62.18
2023-05-19T13:00:22.040Z,62.09
2023-05-19T13:03:02.975Z,62.03
2023-05-19T13:05:39.661Z,62.56
2023-05-19T13:08:13.591Z,62.24
2023-05-19T13:10:47.421Z,62.21
2023-05-19T13:13:19.999Z,62.36
2023-05-19T13:15:52.469Z,61.99
2023-05-19T13:18:24.662Z,62.16
2023-05-19T13:20:57.123Z,61.75
2023-05-19T13:23:29.577Z,61.47
2023-05-19T13:26:01.796Z,61.92
2023-05-19T13:28:34.010Z,62.30
2023-05-19T13:31:06.427Z,62.28
2023-05-19T13:33:38.816Z,61.96
2023-05-19T13:36:10.988Z,62.60
2023-05-19T13:38:43.062Z,62.07
2023-05-19T13:41:16.052Z,62.44
2023-05-19T13:43:48.456Z,62.10
2023-05-19T13:46:26.635Z,61.65
2023-05-19T13:49:05.238Z,61.92
2023-05-19T13:51:37.776Z,62.14
2023-05-19T13:54:11.609Z,61.96
2023-05-19T13:56:46.110Z,61.79
2023-05-19T13:59:18.649Z,62.23
2023-05-19T14:01:50.784Z,62.13
2023-05-19T14:04:23.874Z,62.51
2023-05-19T14:06:57.255Z,62.45
2023-05-19T14:09:29.870Z,62.64
2023-05-19T14:12:02.431Z,62.28
2023-05-19T14:14:34.871Z,61.98
2023-05-19T14:17:07.509Z,62.32
2023-05-19T14:19:39.630Z,62.24
2023-05-19T14:22:13.555Z,62.44
2023-05-19T14:24:45.596Z,61.79
2023-05-19T14:27:17.753Z,62.07
2023-05-19T14:29:50.111Z,62.12
2023-05-19T14:32:23.247Z,62.55
2023-05-19T14:34:55.748Z,62.80
2023-05-19T14:37:29.111Z,62.81
2023-05-19T14:40:04.649Z,62.65
2023-05-19T14:42:36.820Z,63.08
2023-05-19T14:45:10.877Z,63.31
2023-05-19T14:47:42.983Z,63.40
2023-05-19T14:50:15.111Z,63.62
2023-05-19T14:52:47.209Z,63.86
2023-05-19T14:55:19.446Z,64.13
2023-05-19T14:57:51.446Z,63.91
2023-05-19T15:00:26.263Z,63.72
2023-05-19T15:02:58.598Z,63.76
2023-05-19T15:05:30.744Z,63.65
2023-05-19T15:08:06.053Z,63.35
2023-05-19T15:10:38.457Z,63.92
2023-05-19T15:13:12.031Z,63.85
2023-05-19T15:15:44.373Z,63.88
2023-05-19T15:18:18.920Z,63.81
2023-05-19T15:20:51.194Z,64.24
2023-05-19T15:23:23.380Z,64.22
2023-05-19T15:25:55.619Z,64.32
2023-05-19T15:28:28.216Z,64.30
2023-05-19T15:31:00.382Z,64.31
2023-05-19T15:33:32.527Z,64.37
2023-05-19T15:36:04.751Z,64.62
2023-05-19T15:38:38.126Z,64.89
2023-05-19T15:41:11.924Z,65.21
2023-05-19T15:43:46.554Z,65.06
2023-05-19T15:46:19.922Z,65.22
2023-05-19T15:48:52.025Z,65.61
2023-05-19T15:51:24.207Z,66.07
2023-05-19T15:53:56.311Z,66.00
2023-05-19T15:56:28.390Z,65.84
2023-05-19T15:59:00.488Z,65.77
2023-05-19T16:01:32.723Z,65.69
2023-05-19T16:04:05.164Z,65.76
2023-05-19T16:06:37.438Z,65.71
2023-05-19T16:09:09.671Z,65.77
2023-05-19T16:11:41.884Z,65.84
2023-05-19T16:14:14.459Z,66.30
2023-05-19T16:16:46.684Z,66.29
2023-05-19T16:19:18.965Z,66.14
2023-05-19T16:21:51.170Z,66.52
2023-05-19T16:24:23.234Z,66.29
2023-05-19T16:26:55.773Z,66.71
2023-05-19T16:29:27.964Z,66.94
2023-05-19T16:32:00.282Z,67.28
2023-05-19T16:34:32.737Z,67.36
2023-05-19T16:37:05.117Z,67.57
2023-05-19T16:39:38.261Z,67.67
2023-05-19T16:42:10.461Z,67.52
2023-05-19T16:44:43.508Z,67.63
2023-05-19T16:47:15.713Z,67.25
2023-05-19T16:49:47.890Z,67.42
2023-05-19T16:52:21.404Z,67.54
2023-05-19T16:54:53.553Z,67.74
2023-05-19T16:57:25.894Z,67.70
2023-05-19T16:59:57.992Z,67.79
2023-05-19T17:02:30.361Z,68.16
2023-05-19T17:05:02.548Z,67.97
2023-05-19T17:07:34.621Z,68.18
2023-05-19T17:10:07.602Z,68.45
2023-05-19T17:12:39.729Z,68.54
2023-05-19T17:15:13.232Z,68.68
2023-05-19T17:17:45.409Z,68.61
2023-05-19T17:20:17.971Z,68.63
2023-05-19T17:22:50.131Z,68.28
2023-05-19T17:25:22.302Z,68.21
2023-05-19T17:27:56.005Z,68.61
2023-05-19T17:30:28.378Z,68.49
2023-05-19T17:33:01.217Z,68.73
2023-05-19T17:35:34.398Z,69.06
2023-05-19T17:38:06.875Z,68.79
2023-05-19T17:40:41.877Z,68.95
2023-05-19T17:43:14.367Z,69.09
2023-05-19T17:45:46.742Z,69.21
2023-05-19T17:48:19.114Z,69.32
2023-05-19T17:50:51.708Z,69.52
2023-05-19T17:53:24.656Z,69.74
2023-05-19T17:56:01.571Z,69.74
2023-05-19T17:58:35.176Z,69.85
2023-05-19T18:01:07.978Z,69.75
2023-05-19T18:03:41.513Z,69.54
2023-05-19T18:06:14.000Z,69.49
2023-05-19T18:08:50.531Z,69.47
2023-05-19T18:11:24.014Z,70.23
2023-05-19T18:13:56.391Z,69.89
2023-05-19T18:16:29.708Z,69.85
2023-05-19T18:19:02.061Z,69.95
2023-05-19T18:21:34.424Z,70.25
2023-05-19T18:24:07.232Z,70.59
2023-05-19T18:26:42.282Z,70.36
2023-05-19T18:29:14.815Z,70.35
2023-05-19T18:31:47.120Z,70.40
2023-05-19T18:34:19.277Z,70.55
2023-05-19T18:36:51.543Z,70.38
2023-05-19T18:39:23.875Z,70.07
2023-05-19T18:41:56.216Z,70.03
2023-05-19T18:44:28.505Z,70.17
2023-05-19T18:47:00.771Z,70.16
2023-05-19T18:49:33.181Z,70.25
2023-05-19T18:52:05.559Z,70.32
2023-05-19T18:54:37.899Z,70.49
2023-05-19T18:57:10.416Z,70.65
2023-05-19T18:59:42.842Z,70.43
2023-05-19T19:02:15.166Z,70.92
2023-05-19T19:04:47.648Z,70.96
2023-05-19T19:07:20.178Z,71.06
2023-05-19T19:09:53.208Z,71.09
2023-05-19T19:12:26.427Z,71.31
2023-05-19T19:15:00.289Z,71.42
2023-05-19T19:17:35.714Z,71.33
2023-05-19T19:20:11.247Z,71.39
2023-05-19T19:22:43.591Z,71.17
2023-05-19T19:25:18.168Z,71.32
2023-05-19T19:27:50.726Z,71.31
2023-05-19T19:30:23.045Z,71.32
2023-05-19T19:32:57.121Z,71.35
2023-05-19T19:35:29.315Z,71.23
2023-05-19T19:38:04.405Z,71.10
2023-05-19T19:40:37.541Z,71.18
2023-05-19T19:43:10.107Z,71.39
2023-05-19T19:45:42.539Z,71.37
2023-05-19T19:48:23.394Z,71.50
2023-05-19T19:50:58.230Z,71.77
2023-05-19T19:53:30.924Z,71.59
2023-05-19T19:56:07.361Z,71.85
2023-05-19T19:58:39.631Z,71.83
2023-05-19T20:01:27.937Z,71.99
2023-05-19T20:04:01.059Z,72.02
2023-05-19T20:06:33.454Z,71.83
2023-05-19T20:09:06.031Z,71.79
2023-05-19T20:11:38.559Z,71.74
2023-05-19T20:14:10.932Z,71.72
2023-05-19T20:16:43.211Z,71.77
2023-05-19T20:19:15.616Z,72.02
2023-05-19T20:21:47.991Z,71.70
2023-05-19T20:24:20.164Z,72.04
2023-05-19T20:26:52.310Z,72.06
2023-05-19T20:29:24.907Z,72.02
2023-05-19T20:31:59.210Z,72.31
2023-05-19T20:34:31.435Z,72.10
2023-05-19T20:37:03.624Z,72.29
2023-05-19T20:39:35.848Z,72.31
2023-05-19T20:42:09.038Z,72.06
2023-05-19T20:44:41.277Z,72.21
2023-05-19T20:47:13.431Z,72.62
2023-05-19T20:49:45.631Z,72.71
2023-05-19T20:52:20.382Z,72.35
2023-05-19T20:54:52.698Z,72.39
2023-05-19T20:57:26.143Z,72.36
2023-05-19T21:00:48.932Z,72.21
2023-05-19T21:03:24.322Z,72.10
2023-05-19T21:05:56.793Z,72.30
2023-05-19T21:08:29.959Z,72.04
2023-05-19T21:11:02.198Z,72.32
2023-05-19T21:13:34.503Z,72.45
2023-05-19T21:16:09.897Z,72.84
2023-05-19T21:18:42.145Z,72.61
2023-05-19T21:21:14.320Z,72.79
2023-05-19T21:23:46.414Z,72.83
2023-05-19T21:26:20.051Z,73.02
2023-05-19T21:28:52.161Z,73.13
2023-05-19T21:31:24.272Z,73.23
2023-05-19T21:33:56.563Z,73.28
2023-05-19T21:36:28.975Z,73.17
2023-05-19T21:39:03.821Z,73.35
2023-05-19T21:41:35.862Z,73.51
2023-05-19T21:44:08.003Z,73.41
2023-05-19T21:46:45.068Z,73.35
2023-05-19T21:49:17.613Z,73.50
2023-05-19T21:51:49.736Z,73.60
2023-05-19T21:54:21.832Z,73.48
2023-05-19T21:56:54.004Z,73.34
2023-05-19T21:59:26.558Z,73.37
2023-05-19T22:01:59.012Z,73.14
2023-05-19T22:04:32.874Z,73.33
2023-05-19T22:07:08.291Z,73.59
2023-05-19T22:09:40.433Z,74.17
2023-05-19T22:12:12.730Z,74.37
2023-05-19T22:14:45.058Z,74.25
2023-05-19T22:17:17.276Z,74.71
2023-05-19T22:19:49.532Z,74.37
2023-05-19T22:22:21.745Z,74.31
2023-05-19T22:24:53.929Z,74.10
2023-05-19T22:27:26.157Z,74.21
2023-05-19T22:29:59.913Z,74.00
2023-05-19T22:32:32.339Z,73.83
2023-05-19T22:35:06.622Z,73.80
2023-05-19T22:37:38.802Z,73.73
2023-05-19T22:40:14.801Z,73.71
2023-05-19T22:42:46.943Z,73.56
2023-05-19T22:45:19.806Z,73.74
2023-05-19T22:47:52.547Z,73.73
2023-05-19T22:50:24.930Z,73.42
2023-05-19T22:52:57.116Z,73.81
2023-05-19T22:55:29.309Z,73.64
2023-05-19T22:58:01.492Z,73.78
2023-05-19T23:00:33.679Z,73.72
2023-05-19T23:03:05.773Z,73.82
2023-05-19T23:05:37.986Z,73.81
2023-05-19T23:08:10.189Z,73.92
2023-05-19T23:10:42.230Z,74.14
2023-05-19T23:13:14.292Z,74.12
2023-05-19T23:15:46.306Z,74.04
2023-05-19T23:18:18.422Z,74.03
2023-05-19T23:20:50.586Z,74.17
2023-05-19T23:23:22.788Z,74.36
2023-05-19T23:25:54.892Z,74.27
2023-05-19T23:28:26.986Z,74.18
2023-05-19T23:30:59.093Z,74.30
2023-05-19T23:33:31.134Z,74.61
2023-05-19T23:36:08.817Z,74.61
2023-05-19T23:38:41.129Z,74.62
2023-05-19T23:41:13.187Z,74.61
2023-05-19T23:43:45.271Z,74.49
2023-05-19T23:46:17.408Z,74.67
2023-05-19T23:48:49.705Z,74.33
2023-05-19T23:51:21.757Z,74.60
2023-05-19T23:53:53.918Z,74.79
2023-05-19T23:56:26.132Z,74.92
2023-05-19T23:58:58.229Z,74.97
